Airfield :
LOGIN :

Register | Disclaimer

   EN    FR    IT 

 










Legend :    VFR   Marginal VFR   IFR   Intensive IFR   Very Intensive IFR
Visi :
Ceiling :
>= 8 km
>= 3000ft
5 to 8 km
1000 to 3000 ft
1500m to 5 km
500 to 1000 ft
800 to 1500m
200 to 500 ft
< 800m
< 200 ft
Symbols :   Thunderstorms  Fog  Heavy snow  Heavy precipitations  Wind > 20 kt
SIGMETs :     Misc.  Thunderstorms  Icing  Turbulence  Mountain Waves  Volcanic Ashes






- Airport Elevation : 464 ft
- IATA code : EVX


LFOE - Evreux

CURRENT METAR :
  • 170500Z AUTO 22006KT 9999 OVC007 10/10 Q1010 TEMPO 2500 BR VV///

EXPIRED METARs :
  • 170430Z AUTO 21007KT 9999 OVC005 10/10 Q1010 TEMPO 2500 BR VV///
  • 170400Z AUTO 21008KT 9999 OVC003 10/09 Q1010
  • 170330Z AUTO 21006KT 1600 1000 R22/1100N BR FEW007 10/10 Q1010
  • 170300Z AUTO 21003KT 7000 NSC 10/09 Q1010
  • 170230Z AUTO 21004KT 9999 SCT007 10/10 Q1010

TAF TAF LFOE
Valid from the 17 at 03:00 until the 18 at 03:00 UTC


170200Z 1703/1803 20007KT 4000 BR BKN005
TEMPO 1703/1707 2500 BR OVC003
PROB30
TEMPO 1703/1706 1200 BCFG VV///
BECMG 1707/1709 9999 NSW
BECMG 1710/1712 20010G20KT SCT020
TEMPO 1712/1715 4000 -SHRA BKN020
TEMPO 1715/1719 26012G22KT 4000 -SHRA BKN025TCU
TEMPO 1721/1803 20020G30KT 4000 -RA SCT010 BKN060
PROB30
TEMPO 1800/1803 23025G40KT



MET'MAP, your aeronautical weather chart ! - Copyright ORBIFLY December 2007 - Disclaimer

ORBIFLY MET'MAP TEAM :

Programming & Development : Alexandra Zaïnal
Concept & Development : Baudouin d'Aumeries
Co-Development & Prog : Marc-Olivier Méhu
Technical & hardware support : Manuel Goepfert

Contact : metmap@orbifly.com




SOURCES & CREDITS :

   NOAA